createdAt,value
2022-07-25T00:01:11.903Z,8.90
2022-07-25T00:04:15.426Z,10.00
2022-07-25T00:07:34.589Z,10.70
2022-07-25T00:11:18.343Z,9.70
2022-07-25T00:14:42.537Z,9.00
2022-07-25T00:17:58.424Z,10.60
2022-07-25T00:21:00.597Z,11.40
2022-07-25T00:24:43.441Z,9.50
2022-07-25T00:28:06.879Z,15.30
2022-07-25T00:31:20.229Z,10.60
2022-07-25T00:35:07.956Z,13.00
2022-07-25T00:38:33.515Z,9.90
2022-07-25T00:41:49.886Z,11.10
2022-07-25T00:45:18.939Z,9.90
2022-07-25T00:48:42.422Z,11.90
2022-07-25T00:52:02.877Z,10.30
2022-07-25T00:55:32.966Z,10.80
2022-07-25T00:58:52.760Z,9.50
2022-07-25T01:02:37.342Z,12.30
2022-07-25T01:06:19.431Z,10.50
2022-07-25T01:09:31.947Z,12.30
2022-07-25T01:13:14.406Z,12.80
2022-07-25T01:16:47.811Z,13.00
2022-07-25T01:19:56.125Z,12.10
2022-07-25T01:23:35.899Z,12.90
2022-07-25T01:26:33.198Z,14.00
2022-07-25T01:29:54.045Z,12.70
2022-07-25T01:35:52.022Z,13.30
2022-07-25T01:39:18.215Z,13.00
2022-07-25T01:42:33.741Z,11.90
2022-07-25T01:46:00.459Z,12.00
2022-07-25T01:49:33.556Z,15.60
2022-07-25T01:52:59.887Z,11.60
2022-07-25T01:56:02.755Z,12.00
2022-07-25T01:59:15.825Z,12.70
2022-07-25T02:02:22.346Z,10.50
2022-07-25T02:05:46.234Z,11.60
2022-07-25T02:09:04.217Z,11.30
2022-07-25T02:12:10.555Z,12.60
2022-07-25T02:15:34.105Z,13.20
2022-07-25T02:19:05.199Z,12.70
2022-07-25T02:22:19.419Z,10.90
2022-07-25T02:25:33.384Z,10.50
2022-07-25T02:28:39.706Z,10.90
2022-07-25T02:32:05.434Z,13.90
2022-07-25T02:35:01.645Z,12.60
2022-07-25T02:38:19.130Z,11.10
2022-07-25T02:41:28.083Z,10.30
2022-07-25T02:44:43.651Z,11.80
2022-07-25T02:47:29.809Z,10.90
2022-07-25T02:50:26.629Z,12.70
2022-07-25T02:53:47.168Z,10.00
2022-07-25T02:56:33.348Z,11.60
2022-07-25T02:59:33.934Z,14.60
2022-07-25T03:02:50.926Z,13.60
2022-07-25T03:05:39.686Z,12.70
2022-07-25T03:08:37.950Z,10.40
2022-07-25T03:11:37.752Z,11.90
2022-07-25T03:14:26.455Z,11.70
2022-07-25T03:17:52.981Z,10.40
2022-07-25T03:20:57.280Z,13.10
2022-07-25T03:24:24.014Z,13.40
2022-07-25T03:27:16.395Z,12.40
2022-07-25T03:30:30.169Z,12.00
2022-07-25T03:33:24.206Z,12.90
2022-07-25T03:36:32.956Z,16.90
2022-07-25T03:39:39.238Z,16.70
2022-07-25T03:48:55.336Z,13.80
2022-07-25T03:52:00.742Z,16.00
2022-07-25T03:54:49.636Z,24.10
2022-07-25T03:57:35.680Z,18.00
2022-07-25T04:00:24.538Z,15.90
2022-07-25T04:03:14.590Z,16.90
2022-07-25T04:06:23.682Z,16.60
2022-07-25T04:09:37.324Z,16.00
2022-07-25T04:12:30.871Z,19.80
2022-07-25T04:15:24.615Z,18.50
2022-07-25T04:18:15.726Z,19.20
2022-07-25T04:21:44.333Z,17.60
2022-07-25T04:24:47.967Z,18.90
2022-07-25T04:27:51.787Z,21.40
2022-07-25T04:30:55.170Z,23.90
2022-07-25T04:34:03.691Z,17.90
2022-07-25T04:36:59.056Z,19.10
2022-07-25T04:39:47.206Z,19.10
2022-07-25T04:43:23.995Z,21.00
2022-07-25T04:46:30.050Z,18.70
2022-07-25T04:49:16.574Z,13.20
2022-07-25T04:52:27.008Z,15.10
2022-07-25T04:55:26.076Z,12.60
2022-07-25T04:58:12.685Z,12.90
2022-07-25T05:01:28.175Z,15.00
2022-07-25T05:04:28.932Z,13.60
2022-07-25T05:07:39.080Z,16.50
2022-07-25T05:10:39.539Z,15.30
2022-07-25T05:13:34.144Z,12.50
2022-07-25T05:16:20.088Z,14.00
2022-07-25T05:19:09.799Z,15.30
2022-07-25T05:21:53.291Z,14.30
2022-07-25T05:24:39.959Z,11.90
2022-07-25T05:27:23.376Z,8.90
2022-07-25T05:30:09.402Z,8.90
2022-07-25T05:32:52.558Z,11.40
2022-07-25T05:35:54.422Z,8.20
2022-07-25T05:38:37.432Z,8.50
2022-07-25T05:41:21.259Z,6.60
2022-07-25T05:44:07.465Z,10.00
2022-07-25T05:46:51.786Z,10.00
2022-07-25T05:49:34.970Z,7.10
2022-07-25T05:52:18.056Z,11.10
2022-07-25T05:55:04.152Z,7.10
2022-07-25T05:57:47.091Z,11.00
2022-07-25T06:00:31.244Z,11.00
2022-07-25T06:03:14.374Z,11.90
2022-07-25T06:05:57.595Z,8.10
2022-07-25T06:08:42.969Z,7.30
2022-07-25T06:11:30.768Z,7.60
2022-07-25T06:14:14.858Z,9.40
2022-07-25T06:17:00.562Z,10.30
2022-07-25T06:19:43.469Z,9.50
2022-07-25T06:22:30.395Z,7.40
2022-07-25T06:25:13.512Z,12.10
2022-07-25T06:27:56.708Z,9.00
2022-07-25T06:30:39.645Z,8.10
2022-07-25T06:33:22.783Z,6.60
2022-07-25T06:36:07.002Z,5.90
2022-07-25T06:38:50.874Z,6.20
2022-07-25T06:41:37.798Z,8.60
2022-07-25T06:44:21.029Z,6.60
2022-07-25T06:47:05.815Z,7.40
2022-07-25T06:49:49.081Z,4.20
2022-07-25T06:52:32.088Z,7.10
2022-07-25T06:55:16.142Z,10.00
2022-07-25T06:57:59.040Z,9.80
2022-07-25T07:00:42.136Z,8.10
2022-07-25T07:03:28.450Z,6.40
2022-07-25T07:06:11.620Z,4.80
2022-07-25T07:08:56.982Z,6.00
2022-07-25T07:11:39.924Z,7.70
2022-07-25T07:14:23.164Z,6.40
2022-07-25T07:17:09.461Z,8.90
2022-07-25T07:19:52.457Z,11.40
2022-07-25T07:22:50.270Z,8.70
2022-07-25T07:25:33.785Z,5.40
2022-07-25T07:28:17.431Z,7.50
2022-07-25T07:31:17.394Z,5.30
2022-07-25T07:34:01.230Z,7.00
2022-07-25T07:36:44.267Z,8.40
2022-07-25T07:39:27.624Z,5.70
2022-07-25T07:42:10.807Z,6.60
2022-07-25T07:44:53.674Z,6.50
2022-07-25T07:47:36.611Z,4.30
2022-07-25T07:50:22.424Z,7.70
2022-07-25T07:53:06.881Z,5.60
2022-07-25T07:55:55.384Z,6.40
2022-07-25T07:58:38.372Z,10.70
2022-07-25T08:01:21.670Z,7.30
2022-07-25T08:04:05.296Z,5.50
2022-07-25T08:06:58.191Z,4.10
2022-07-25T08:09:41.161Z,4.70
2022-07-25T08:12:24.405Z,6.90
2022-07-25T08:15:09.403Z,5.70
2022-07-25T08:17:56.607Z,6.60
2022-07-25T08:20:42.012Z,2.80
2022-07-25T08:23:28.118Z,3.70
2022-07-25T08:26:11.503Z,6.20
2022-07-25T08:29:11.117Z,11.00
2022-07-25T08:31:57.685Z,4.70
2022-07-25T08:34:40.754Z,3.10
2022-07-25T08:37:24.510Z,2.60
2022-07-25T08:40:08.450Z,4.90
2022-07-25T08:42:52.693Z,10.20
2022-07-25T08:45:37.134Z,3.20
2022-07-25T08:48:25.542Z,4.60
2022-07-25T08:51:09.207Z,6.70
2022-07-25T08:53:52.849Z,2.40
2022-07-25T08:56:39.218Z,9.00
2022-07-25T08:59:22.358Z,3.70
2022-07-25T09:02:10.939Z,4.90
2022-07-25T09:04:58.402Z,3.60
2022-07-25T09:07:41.627Z,5.40
2022-07-25T09:10:26.815Z,5.60
2022-07-25T09:13:14.346Z,3.30
2022-07-25T09:15:59.870Z,7.60
2022-07-25T09:18:45.606Z,5.10
2022-07-25T09:21:28.602Z,4.30
2022-07-25T09:24:18.939Z,8.20
2022-07-25T09:27:12.480Z,4.10
2022-07-25T09:29:57.454Z,1.70
2022-07-25T09:32:40.305Z,2.20
2022-07-25T09:35:30.976Z,4.40
2022-07-25T09:38:16.653Z,4.00
2022-07-25T09:41:02.154Z,3.70
2022-07-25T09:43:45.154Z,7.00
2022-07-25T09:46:32.610Z,8.00
2022-07-25T09:49:16.359Z,3.90
2022-07-25T09:51:59.472Z,4.30
2022-07-25T09:54:42.405Z,8.40
2022-07-25T09:57:26.135Z,10.20
2022-07-25T10:00:10.005Z,4.10
2022-07-25T10:02:55.756Z,4.80
2022-07-25T10:05:51.773Z,5.70
2022-07-25T10:08:39.828Z,4.60
2022-07-25T10:11:25.799Z,4.40
2022-07-25T10:14:13.054Z,3.40
2022-07-25T10:16:56.819Z,4.00
2022-07-25T10:19:51.850Z,4.90
2022-07-25T10:22:57.583Z,3.00
2022-07-25T10:25:43.747Z,5.10
2022-07-25T10:28:40.582Z,2.10
2022-07-25T10:31:30.443Z,3.50
2022-07-25T10:34:16.727Z,3.70
2022-07-25T10:37:10.997Z,2.30
2022-07-25T10:39:54.568Z,1.90
2022-07-25T10:42:39.150Z,3.20
2022-07-25T10:45:26.153Z,1.00
2022-07-25T10:48:11.206Z,3.80
2022-07-25T10:51:14.729Z,4.40
2022-07-25T10:53:58.338Z,4.50
2022-07-25T10:57:00.143Z,10.50
2022-07-25T10:59:44.308Z,2.70
2022-07-25T11:02:27.436Z,2.10
2022-07-25T11:05:10.278Z,4.30
2022-07-25T11:08:20.089Z,7.30
2022-07-25T11:10:57.691Z,2.30
2022-07-25T11:13:42.628Z,7.50
2022-07-25T11:16:27.939Z,6.40
2022-07-25T11:19:21.732Z,5.30
2022-07-25T11:22:04.689Z,2.60
2022-07-25T11:24:48.151Z,3.50
2022-07-25T11:27:33.800Z,1.50
2022-07-25T11:30:20.018Z,6.30
2022-07-25T11:33:02.892Z,2.40
2022-07-25T11:35:46.256Z,3.10
2022-07-25T11:38:29.679Z,1.80
2022-07-25T11:41:12.644Z,4.30
2022-07-25T11:43:55.689Z,1.80
2022-07-25T11:46:44.134Z,5.70
2022-07-25T11:49:27.414Z,4.10
2022-07-25T11:52:23.319Z,4.10
2022-07-25T11:55:09.892Z,5.50
2022-07-25T11:58:00.347Z,1.90
2022-07-25T12:00:48.684Z,3.40
2022-07-25T12:03:38.170Z,5.30
2022-07-25T12:06:29.688Z,6.60
2022-07-25T12:09:20.941Z,3.60
2022-07-25T12:12:04.830Z,3.90
2022-07-25T12:14:47.928Z,4.10
2022-07-25T12:17:35.346Z,6.90
2022-07-25T12:20:27.989Z,2.70
2022-07-25T12:25:55.055Z,2.40
2022-07-25T12:28:38.041Z,7.30
2022-07-25T12:31:21.118Z,6.00
2022-07-25T12:34:04.195Z,5.10
2022-07-25T12:36:47.214Z,4.90
2022-07-25T12:39:30.194Z,3.00
2022-07-25T12:42:13.042Z,2.10
2022-07-25T12:44:56.530Z,5.00
2022-07-25T12:47:39.903Z,7.30
2022-07-25T12:50:27.422Z,5.20
2022-07-25T12:53:10.844Z,5.40
2022-07-25T12:55:54.138Z,7.30
2022-07-25T12:58:37.905Z,4.60
2022-07-25T13:01:21.077Z,2.60
2022-07-25T13:04:07.269Z,5.20
2022-07-25T13:06:50.436Z,5.70
2022-07-25T13:09:33.528Z,2.80
2022-07-25T13:12:16.766Z,4.60
2022-07-25T13:14:59.894Z,4.00
2022-07-25T13:18:02.945Z,3.70
2022-07-25T13:20:48.391Z,5.40
2022-07-25T13:23:31.361Z,8.30
2022-07-25T13:26:14.507Z,6.70
2022-07-25T13:29:00.031Z,5.50
2022-07-25T13:31:46.112Z,2.30
2022-07-25T13:34:31.943Z,3.20
2022-07-25T13:37:15.977Z,4.00
2022-07-25T13:39:59.084Z,6.20
2022-07-25T13:42:56.119Z,10.50
2022-07-25T13:45:40.016Z,6.30
2022-07-25T13:48:31.065Z,4.60
2022-07-25T13:51:14.822Z,5.80
2022-07-25T13:53:57.804Z,8.50
2022-07-25T13:56:41.746Z,6.80
2022-07-25T13:59:24.865Z,4.40
2022-07-25T14:02:08.025Z,5.10
2022-07-25T14:04:50.831Z,6.50
2022-07-25T14:07:37.643Z,3.70
2022-07-25T14:10:20.505Z,12.60
2022-07-25T14:13:03.450Z,2.30
2022-07-25T14:15:46.423Z,3.70
2022-07-25T14:18:31.955Z,5.70
2022-07-25T14:21:14.794Z,2.80
2022-07-25T14:23:57.803Z,3.20
2022-07-25T14:26:41.810Z,6.60
2022-07-25T14:29:30.104Z,8.20
2022-07-25T14:32:13.561Z,5.50
2022-07-25T14:34:56.585Z,9.50
2022-07-25T14:37:39.391Z,4.90
2022-07-25T14:40:22.307Z,5.80
2022-07-25T14:43:05.149Z,4.20
2022-07-25T14:45:48.152Z,16.20
2022-07-25T14:48:31.439Z,5.80
2022-07-25T14:51:14.994Z,5.10
2022-07-25T14:53:57.881Z,2.90
2022-07-25T14:56:40.944Z,7.70
2022-07-25T14:59:24.413Z,4.40
2022-07-25T15:02:07.633Z,6.30
2022-07-25T15:04:50.638Z,10.60
2022-07-25T15:07:33.730Z,6.70
2022-07-25T15:10:17.519Z,4.60
2022-07-25T15:13:28.352Z,4.60
2022-07-25T15:16:05.345Z,7.50
2022-07-25T15:19:14.466Z,7.60
2022-07-25T15:21:51.371Z,5.80
2022-07-25T15:24:57.619Z,3.50
2022-07-25T15:27:40.425Z,5.80
2022-07-25T15:30:29.061Z,3.40
2022-07-25T15:33:12.392Z,6.00
2022-07-25T15:35:55.582Z,6.00
2022-07-25T15:38:38.522Z,5.50
2022-07-25T15:41:21.534Z,9.50
2022-07-25T15:44:04.914Z,2.40
2022-07-25T15:46:48.055Z,3.70
2022-07-25T15:49:31.245Z,8.90
2022-07-25T15:52:14.254Z,5.90
2022-07-25T15:54:57.212Z,2.50
2022-07-25T15:57:40.296Z,3.00
2022-07-25T16:00:29.270Z,4.70
2022-07-25T16:03:13.952Z,3.30
2022-07-25T16:05:57.249Z,8.60
2022-07-25T16:08:40.249Z,3.40
2022-07-25T16:11:23.268Z,4.90
2022-07-25T16:14:08.876Z,7.30
2022-07-25T16:16:55.564Z,7.40
2022-07-25T16:19:38.672Z,4.50
2022-07-25T16:22:21.766Z,3.60
2022-07-25T16:25:05.651Z,6.70
2022-07-25T16:27:48.626Z,4.30
2022-07-25T16:30:31.726Z,3.80
2022-07-25T16:33:15.823Z,4.50
2022-07-25T16:35:59.065Z,3.10
2022-07-25T16:38:46.699Z,5.90
2022-07-25T16:41:38.493Z,7.00
2022-07-25T16:44:23.560Z,8.10
2022-07-25T16:47:08.119Z,7.90
2022-07-25T16:49:51.185Z,3.50
2022-07-25T16:52:34.817Z,4.30
2022-07-25T16:55:20.823Z,8.50
2022-07-25T16:58:04.062Z,8.00
2022-07-25T17:00:49.288Z,5.40
2022-07-25T17:03:34.907Z,11.80
2022-07-25T17:06:18.194Z,6.80
2022-07-25T17:09:01.333Z,7.90
2022-07-25T17:11:44.688Z,4.80
2022-07-25T17:14:30.203Z,7.20
2022-07-25T17:17:23.047Z,2.70
2022-07-25T17:20:06.817Z,8.20
2022-07-25T17:22:49.852Z,7.40
2022-07-25T17:25:35.426Z,3.20
2022-07-25T17:28:22.063Z,13.10
2022-07-25T17:31:06.793Z,5.70
2022-07-25T17:33:49.918Z,2.80
2022-07-25T17:36:32.864Z,4.50
2022-07-25T17:39:16.386Z,7.30
2022-07-25T17:41:59.601Z,4.50
2022-07-25T17:44:42.455Z,8.10
2022-07-25T17:47:27.984Z,7.60
2022-07-25T17:50:11.738Z,4.10
2022-07-25T17:53:03.416Z,8.60
2022-07-25T17:58:29.721Z,6.60
2022-07-25T18:01:12.883Z,7.00
2022-07-25T18:03:56.388Z,7.10
2022-07-25T18:06:39.383Z,9.40
2022-07-25T18:09:24.310Z,10.20
2022-07-25T18:12:07.845Z,9.50
2022-07-25T18:14:50.701Z,6.00
2022-07-25T18:17:35.934Z,8.90
2022-07-25T18:20:19.555Z,11.00
2022-07-25T18:23:04.334Z,9.20
2022-07-25T18:25:47.647Z,9.60
2022-07-25T18:28:30.809Z,15.20
2022-07-25T18:31:13.906Z,11.20
2022-07-25T18:33:57.013Z,9.60
2022-07-25T18:36:40.987Z,7.70
2022-07-25T18:39:23.998Z,8.00
2022-07-25T18:42:09.620Z,6.00
2022-07-25T18:44:52.557Z,9.00
2022-07-25T18:47:38.662Z,6.00
2022-07-25T18:50:24.677Z,10.80
2022-07-25T18:53:07.609Z,9.60
2022-07-25T18:56:19.485Z,8.90
2022-07-25T18:59:02.702Z,8.10
2022-07-25T19:01:45.877Z,7.90
2022-07-25T19:04:32.759Z,8.30
2022-07-25T19:07:15.837Z,19.60
2022-07-25T19:10:02.462Z,16.90
2022-07-25T19:12:51.427Z,23.10
2022-07-25T19:15:37.536Z,16.90
2022-07-25T19:18:29.447Z,12.50
2022-07-25T19:21:15.371Z,19.00
2022-07-25T19:24:01.582Z,15.80
2022-07-25T19:26:47.978Z,15.10
2022-07-25T19:29:32.356Z,12.00
2022-07-25T19:32:16.204Z,10.40
2022-07-25T19:35:05.575Z,22.30
2022-07-25T19:37:48.802Z,19.60
2022-07-25T19:40:32.725Z,10.60
2022-07-25T19:43:18.986Z,19.20
2022-07-25T19:46:14.564Z,17.90
2022-07-25T19:49:01.945Z,30.00
2022-07-25T19:51:48.262Z,38.10
2022-07-25T19:54:37.685Z,73.10
2022-07-25T19:57:29.617Z,72.10
2022-07-25T20:00:16.007Z,46.90
2022-07-25T20:03:23.195Z,31.00
2022-07-25T20:06:27.519Z,17.80
2022-07-25T20:09:21.104Z,25.90
2022-07-25T20:12:28.140Z,16.40
2022-07-25T20:15:18.992Z,12.10
2022-07-25T20:18:17.427Z,18.40
2022-07-25T20:21:06.207Z,16.70
2022-07-25T20:23:54.736Z,11.10
2022-07-25T20:27:07.199Z,18.80
2022-07-25T20:33:25.311Z,15.00
2022-07-25T20:36:31.817Z,11.80
2022-07-25T20:39:42.992Z,20.20
2022-07-25T20:42:50.313Z,9.50
2022-07-25T20:46:05.052Z,15.50
2022-07-25T20:49:18.389Z,9.10
2022-07-25T20:52:31.278Z,8.00
2022-07-25T20:55:33.135Z,10.50
2022-07-25T20:59:08.749Z,8.00
2022-07-25T21:02:43.311Z,13.20
2022-07-25T21:05:53.591Z,11.50
2022-07-25T21:08:51.234Z,5.80
2022-07-25T21:11:49.173Z,11.40
2022-07-25T21:14:32.421Z,8.10
2022-07-25T21:17:17.840Z,10.80
2022-07-25T21:20:06.000Z,6.40
2022-07-25T21:22:52.059Z,9.20
2022-07-25T21:25:37.518Z,9.00
2022-07-25T21:28:24.189Z,14.70
2022-07-25T21:31:29.676Z,6.50
2022-07-25T21:34:18.831Z,7.10
2022-07-25T21:37:06.348Z,8.30
2022-07-25T21:40:09.822Z,6.50
2022-07-25T21:42:53.248Z,9.60
2022-07-25T21:45:49.654Z,6.50
2022-07-25T21:49:14.689Z,11.50
2022-07-25T21:52:01.550Z,7.90
2022-07-25T21:54:49.955Z,5.80
2022-07-25T21:57:38.943Z,3.90
2022-07-25T22:00:44.607Z,5.50
2022-07-25T22:03:48.232Z,4.50
2022-07-25T22:06:31.527Z,9.80
2022-07-25T22:09:24.103Z,7.90
2022-07-25T22:12:30.284Z,7.80
2022-07-25T22:15:14.150Z,6.30
2022-07-25T22:18:06.402Z,9.70
2022-07-25T22:20:52.349Z,7.70
2022-07-25T22:23:38.436Z,9.80
2022-07-25T22:26:24.467Z,8.00
2022-07-25T22:29:15.869Z,10.20
2022-07-25T22:32:13.470Z,10.20
2022-07-25T22:35:06.278Z,8.80
2022-07-25T22:38:09.888Z,5.80
2022-07-25T22:40:56.758Z,11.70
2022-07-25T22:43:58.454Z,9.20
2022-07-25T22:47:06.396Z,8.20
2022-07-25T22:50:05.433Z,5.30
2022-07-25T22:52:55.701Z,8.40
2022-07-25T22:55:45.649Z,8.50
2022-07-25T22:58:37.989Z,7.60
2022-07-25T23:04:38.534Z,8.80
2022-07-25T23:07:33.147Z,10.90
2022-07-25T23:10:21.872Z,8.90
2022-07-25T23:13:25.147Z,9.20
2022-07-25T23:16:11.376Z,10.40
2022-07-25T23:19:02.424Z,5.90
2022-07-25T23:21:48.632Z,6.20
2022-07-25T23:24:38.091Z,5.90
2022-07-25T23:27:44.454Z,7.40
2022-07-25T23:30:50.170Z,8.30
2022-07-25T23:33:33.501Z,15.40
2022-07-25T23:36:22.483Z,6.00
2022-07-25T23:39:06.000Z,8.90
2022-07-25T23:41:56.960Z,6.50
2022-07-25T23:44:44.451Z,12.70
2022-07-25T23:47:39.786Z,10.50
2022-07-25T23:50:32.576Z,12.40
2022-07-25T23:53:18.506Z,12.30
2022-07-25T23:56:09.642Z,11.10
2022-07-25T23:58:55.711Z,12.30
